sensor_id;sensor_type;location;lat;lon;timestamp;pressure;altitude;pressure_sealevel;temperature;humidity
26775;BME280;14362;51.902;7.626;2024-01-27T00:00:20;102813.44;;;2.46;84.97
26775;BME280;14362;51.902;7.626;2024-01-27T00:04:22;102821.00;;;2.41;84.79
26775;BME280;14362;51.902;7.626;2024-01-27T00:08:23;102816.69;;;2.42;84.96
26775;BME280;14362;51.902;7.626;2024-01-27T00:12:26;102828.69;;;2.38;85.07
26775;BME280;14362;51.902;7.626;2024-01-27T00:16:28;102833.66;;;2.34;85.36
26775;BME280;14362;51.902;7.626;2024-01-27T00:20:29;102835.22;;;2.30;84.88
26775;BME280;14362;51.902;7.626;2024-01-27T00:24:31;102847.25;;;2.28;84.99
26775;BME280;14362;51.902;7.626;2024-01-27T00:28:33;102848.13;;;2.28;85.25
26775;BME280;14362;51.902;7.626;2024-01-27T00:32:35;102851.47;;;2.26;85.41
26775;BME280;14362;51.902;7.626;2024-01-27T00:36:36;102849.75;;;2.26;85.04
26775;BME280;14362;51.902;7.626;2024-01-27T00:40:38;102857.44;;;2.23;85.20
26775;BME280;14362;51.902;7.626;2024-01-27T00:44:40;102866.94;;;2.23;85.31
26775;BME280;14362;51.902;7.626;2024-01-27T00:48:42;102859.97;;;2.22;85.13
26775;BME280;14362;51.902;7.626;2024-01-27T00:52:43;102865.16;;;2.22;85.15
26775;BME280;14362;51.902;7.626;2024-01-27T00:56:45;102868.56;;;2.21;85.37
26775;BME280;14362;51.902;7.626;2024-01-27T01:00:48;102858.91;;;2.18;85.07
26775;BME280;14362;51.902;7.626;2024-01-27T01:04:49;102869.00;;;2.12;85.39
26775;BME280;14362;51.902;7.626;2024-01-27T01:08:50;102883.72;;;2.11;85.79
26775;BME280;14362;51.902;7.626;2024-01-27T01:12:52;102875.94;;;2.11;85.45
26775;BME280;14362;51.902;7.626;2024-01-27T01:16:55;102876.59;;;2.07;85.51
26775;BME280;14362;51.902;7.626;2024-01-27T01:20:56;102883.34;;;2.04;85.80
26775;BME280;14362;51.902;7.626;2024-01-27T01:24:57;102893.75;;;2.04;86.51
26775;BME280;14362;51.902;7.626;2024-01-27T01:28:59;102897.22;;;2.04;85.73
26775;BME280;14362;51.902;7.626;2024-01-27T01:33:02;102894.56;;;2.03;86.15
26775;BME280;14362;51.902;7.626;2024-01-27T01:37:03;102903.03;;;1.98;86.17
26775;BME280;14362;51.902;7.626;2024-01-27T01:41:05;102902.78;;;1.94;85.98
26775;BME280;14362;51.902;7.626;2024-01-27T01:45:07;102889.66;;;1.91;86.27
26775;BME280;14362;51.902;7.626;2024-01-27T01:49:11;102909.56;;;1.90;86.16
26775;BME280;14362;51.902;7.626;2024-01-27T01:53:13;102905.16;;;1.89;86.83
26775;BME280;14362;51.902;7.626;2024-01-27T01:57:14;102904.13;;;1.86;86.23
26775;BME280;14362;51.902;7.626;2024-01-27T02:01:17;102898.78;;;1.83;86.52
26775;BME280;14362;51.902;7.626;2024-01-27T02:05:20;102906.47;;;1.81;86.26
26775;BME280;14362;51.902;7.626;2024-01-27T02:09:21;102909.75;;;1.77;86.61
26775;BME280;14362;51.902;7.626;2024-01-27T02:13:23;102902.63;;;1.73;86.29
26775;BME280;14362;51.902;7.626;2024-01-27T02:17:24;102901.50;;;1.68;86.67
26775;BME280;14362;51.902;7.626;2024-01-27T02:21:27;102903.13;;;1.65;86.94
26775;BME280;14362;51.902;7.626;2024-01-27T02:25:30;102900.44;;;1.64;86.91
26775;BME280;14362;51.902;7.626;2024-01-27T02:29:32;102903.72;;;1.60;86.96
26775;BME280;14362;51.902;7.626;2024-01-27T02:33:33;102905.25;;;1.56;86.93
26775;BME280;14362;51.902;7.626;2024-01-27T02:37:34;102908.59;;;1.54;86.99
26775;BME280;14362;51.902;7.626;2024-01-27T02:41:37;102916.16;;;1.49;87.27
26775;BME280;14362;51.902;7.626;2024-01-27T02:45:39;102908.25;;;1.47;87.20
26775;BME280;14362;51.902;7.626;2024-01-27T02:49:41;102903.81;;;1.45;87.19
26775;BME280;14362;51.902;7.626;2024-01-27T02:53:42;102907.13;;;1.42;87.22
26775;BME280;14362;51.902;7.626;2024-01-27T02:57:45;102906.09;;;1.39;87.60
26775;BME280;14362;51.902;7.626;2024-01-27T03:01:46;102910.31;;;1.37;87.59
26775;BME280;14362;51.902;7.626;2024-01-27T03:05:47;102911.84;;;1.33;87.56
26775;BME280;14362;51.902;7.626;2024-01-27T03:09:49;102908.31;;;1.31;88.02
26775;BME280;14362;51.902;7.626;2024-01-27T03:13:52;102915.28;;;1.32;87.57
26775;BME280;14362;51.902;7.626;2024-01-27T03:17:53;102907.41;;;1.30;87.56
26775;BME280;14362;51.902;7.626;2024-01-27T03:21:54;102910.84;;;1.29;87.68
26775;BME280;14362;51.902;7.626;2024-01-27T03:25:56;102904.72;;;1.29;87.83
26775;BME280;14362;51.902;7.626;2024-01-27T03:30:01;102906.44;;;1.28;87.81
26775;BME280;14362;51.902;7.626;2024-01-27T03:34:03;102911.47;;;1.25;87.84
26775;BME280;14362;51.902;7.626;2024-01-27T03:38:05;102907.91;;;1.23;87.98
26775;BME280;14362;51.902;7.626;2024-01-27T03:42:06;102906.84;;;1.20;88.02
26775;BME280;14362;51.902;7.626;2024-01-27T03:46:09;102903.38;;;1.19;87.93
26775;BME280;14362;51.902;7.626;2024-01-27T03:50:11;102901.59;;;1.18;88.34
26775;BME280;14362;51.902;7.626;2024-01-27T03:54:13;102900.53;;;1.14;88.31
26775;BME280;14362;51.902;7.626;2024-01-27T03:58:14;102911.72;;;1.13;88.01
26775;BME280;14362;51.902;7.626;2024-01-27T04:02:17;102904.66;;;1.11;88.00
26775;BME280;14362;51.902;7.626;2024-01-27T04:06:18;102900.53;;;1.14;88.39
26775;BME280;14362;51.902;7.626;2024-01-27T04:10:20;102907.25;;;1.11;88.24
26775;BME280;14362;51.902;7.626;2024-01-27T04:14:22;102924.19;;;1.04;88.37
26775;BME280;14362;51.902;7.626;2024-01-27T04:18:24;102925.00;;;1.03;88.29
26775;BME280;14362;51.902;7.626;2024-01-27T04:22:26;102919.91;;;1.05;88.31
26775;BME280;14362;51.902;7.626;2024-01-27T04:26:28;102902.56;;;1.04;88.66
26775;BME280;14362;51.902;7.626;2024-01-27T04:30:29;102907.75;;;1.04;88.56
26775;BME280;14362;51.902;7.626;2024-01-27T04:34:33;102905.91;;;1.01;88.39
26775;BME280;14362;51.902;7.626;2024-01-27T04:38:34;102912.84;;;1.02;88.22
26775;BME280;14362;51.902;7.626;2024-01-27T04:42:37;102922.41;;;1.03;88.57
26775;BME280;14362;51.902;7.626;2024-01-27T04:46:39;102918.13;;;1.04;88.49
26775;BME280;14362;51.902;7.626;2024-01-27T04:50:42;102930.19;;;1.03;88.30
26775;BME280;14362;51.902;7.626;2024-01-27T04:54:44;102943.25;;;1.05;88.29
26775;BME280;14362;51.902;7.626;2024-01-27T04:58:45;102944.88;;;1.03;88.52
26775;BME280;14362;51.902;7.626;2024-01-27T05:02:46;102951.66;;;1.01;88.72
26775;BME280;14362;51.902;7.626;2024-01-27T05:06:49;102943.00;;;1.00;88.14
26775;BME280;14362;51.902;7.626;2024-01-27T05:10:51;102939.28;;;0.95;88.36
26775;BME280;14362;51.902;7.626;2024-01-27T05:14:52;102939.94;;;0.91;88.35
26775;BME280;14362;51.902;7.626;2024-01-27T05:18:53;102941.78;;;0.93;88.59
26775;BME280;14362;51.902;7.626;2024-01-27T05:22:56;102937.34;;;0.91;88.43
26775;BME280;14362;51.902;7.626;2024-01-27T05:26:58;102938.13;;;0.90;88.56
26775;BME280;14362;51.902;7.626;2024-01-27T05:30:59;102929.38;;;0.88;88.37
26775;BME280;14362;51.902;7.626;2024-01-27T05:35:01;102938.13;;;0.90;88.33
26775;BME280;14362;51.902;7.626;2024-01-27T05:39:04;102926.63;;;0.85;88.46
26775;BME280;14362;51.902;7.626;2024-01-27T05:43:06;102929.94;;;0.82;88.24
26775;BME280;14362;51.902;7.626;2024-01-27T05:47:08;102929.69;;;0.77;88.64
26775;BME280;14362;51.902;7.626;2024-01-27T05:51:10;102942.56;;;0.76;88.71
26775;BME280;14362;51.902;7.626;2024-01-27T05:55:13;102943.38;;;0.75;88.50
26775;BME280;14362;51.902;7.626;2024-01-27T05:59:16;102949.34;;;0.74;88.88
26775;BME280;14362;51.902;7.626;2024-01-27T06:03:18;102961.44;;;0.73;88.42
26775;BME280;14362;51.902;7.626;2024-01-27T06:07:19;102964.69;;;0.69;88.75
26775;BME280;14362;51.902;7.626;2024-01-27T06:11:25;102972.38;;;0.68;88.94
26775;BME280;14362;51.902;7.626;2024-01-27T06:15:27;102969.72;;;0.66;88.87
26775;BME280;14362;51.902;7.626;2024-01-27T06:19:28;102974.97;;;0.68;88.62
26775;BME280;14362;51.902;7.626;2024-01-27T06:23:30;102972.19;;;0.64;88.88
26775;BME280;14362;51.902;7.626;2024-01-27T06:27:32;102985.88;;;0.62;88.83
26775;BME280;14362;51.902;7.626;2024-01-27T06:31:34;102989.09;;;0.58;88.82
26775;BME280;14362;51.902;7.626;2024-01-27T06:35:35;102990.63;;;0.54;89.30
26775;BME280;14362;51.902;7.626;2024-01-27T06:39:37;103004.22;;;0.50;88.99
26775;BME280;14362;51.902;7.626;2024-01-27T06:43:39;102994.56;;;0.47;89.34
26775;BME280;14362;51.902;7.626;2024-01-27T06:47:41;102995.22;;;0.43;89.26
26775;BME280;14362;51.902;7.626;2024-01-27T06:51:43;103004.50;;;0.40;89.19
26775;BME280;14362;51.902;7.626;2024-01-27T06:55:45;103008.72;;;0.38;89.76
26775;BME280;14362;51.902;7.626;2024-01-27T06:59:48;103001.91;;;0.40;89.37
26775;BME280;14362;51.902;7.626;2024-01-27T07:03:52;103002.81;;;0.40;89.54
26775;BME280;14362;51.902;7.626;2024-01-27T07:07:54;103009.88;;;0.43;89.59
26775;BME280;14362;51.902;7.626;2024-01-27T07:11:55;103017.72;;;0.44;89.78
26775;BME280;14362;51.902;7.626;2024-01-27T07:15:58;103020.31;;;0.44;89.71
26775;BME280;14362;51.902;7.626;2024-01-27T07:20:00;103022.00;;;0.44;89.59
26775;BME280;14362;51.902;7.626;2024-01-27T07:24:01;103019.41;;;0.44;89.69
26775;BME280;14362;51.902;7.626;2024-01-27T07:28:03;103021.22;;;0.45;89.36
26775;BME280;14362;51.902;7.626;2024-01-27T07:32:06;103032.72;;;0.50;89.37
26775;BME280;14362;51.902;7.626;2024-01-27T07:36:13;103036.13;;;0.49;89.05
26775;BME280;14362;51.902;7.626;2024-01-27T07:40:14;103034.16;;;0.45;88.91
26775;BME280;14362;51.902;7.626;2024-01-27T07:44:18;103034.44;;;0.49;88.92
26775;BME280;14362;51.902;7.626;2024-01-27T07:48:21;103031.06;;;0.51;89.16
26775;BME280;14362;51.902;7.626;2024-01-27T07:52:22;103029.25;;;0.49;89.18
26775;BME280;14362;51.902;7.626;2024-01-27T07:56:24;103024.06;;;0.49;88.79
26775;BME280;14362;51.902;7.626;2024-01-27T08:00:25;103036.22;;;0.51;89.18
26775;BME280;14362;51.902;7.626;2024-01-27T08:04:28;103028.06;;;0.59;89.21
26775;BME280;14362;51.902;7.626;2024-01-27T08:08:30;103016.00;;;0.60;88.97
26775;BME280;14362;51.902;7.626;2024-01-27T08:12:31;103033.53;;;0.64;89.27
26775;BME280;14362;51.902;7.626;2024-01-27T08:16:33;103043.31;;;0.70;89.23
26775;BME280;14362;51.902;7.626;2024-01-27T08:20:35;103041.00;;;0.74;88.73
26775;BME280;14362;51.902;7.626;2024-01-27T08:24:37;103048.31;;;0.81;88.58
26775;BME280;14362;51.902;7.626;2024-01-27T08:28:39;103057.25;;;0.87;88.43
26775;BME280;14362;51.902;7.626;2024-01-27T08:32:40;103048.84;;;0.91;88.08
26775;BME280;14362;51.902;7.626;2024-01-27T08:36:43;103058.81;;;0.99;88.13
26775;BME280;14362;51.902;7.626;2024-01-27T08:40:45;103052.19;;;1.05;88.14
26775;BME280;14362;51.902;7.626;2024-01-27T08:44:46;103055.13;;;1.11;88.16
26775;BME280;14362;51.902;7.626;2024-01-27T08:48:48;103058.06;;;1.17;87.78
26775;BME280;14362;51.902;7.626;2024-01-27T08:52:50;103066.91;;;1.21;87.94
26775;BME280;14362;51.902;7.626;2024-01-27T08:56:52;103069.84;;;1.27;87.68
26775;BME280;14362;51.902;7.626;2024-01-27T09:00:53;103069.50;;;1.37;87.67
26775;BME280;14362;51.902;7.626;2024-01-27T09:04:55;103075.03;;;1.43;87.18
26775;BME280;14362;51.902;7.626;2024-01-27T09:08:57;103083.44;;;1.54;87.19
26775;BME280;14362;51.902;7.626;2024-01-27T09:12:59;103082.03;;;1.61;86.87
26775;BME280;14362;51.902;7.626;2024-01-27T09:17:01;103092.91;;;1.70;86.96
26775;BME280;14362;51.902;7.626;2024-01-27T09:21:03;103075.41;;;1.83;86.36
26775;BME280;14362;51.902;7.626;2024-01-27T09:25:06;103082.13;;;1.95;86.31
26775;BME280;14362;51.902;7.626;2024-01-27T09:29:08;103096.88;;;2.13;85.74
26775;BME280;14362;51.902;7.626;2024-01-27T09:33:11;103096.03;;;2.30;85.44
26775;BME280;14362;51.902;7.626;2024-01-27T09:37:12;103099.31;;;2.44;84.54
26775;BME280;14362;51.902;7.626;2024-01-27T09:41:15;103108.63;;;2.57;84.07
26775;BME280;14362;51.902;7.626;2024-01-27T09:45:17;103109.25;;;2.70;83.44
26775;BME280;14362;51.902;7.626;2024-01-27T09:49:19;103111.41;;;2.78;83.44
26775;BME280;14362;51.902;7.626;2024-01-27T09:53:20;103117.19;;;2.91;82.99
26775;BME280;14362;51.902;7.626;2024-01-27T09:57:23;103113.09;;;2.96;82.97
26775;BME280;14362;51.902;7.626;2024-01-27T10:01:26;103118.63;;;3.02;82.44
26775;BME280;14362;51.902;7.626;2024-01-27T10:05:28;103123.31;;;3.09;81.81
26775;BME280;14362;51.902;7.626;2024-01-27T10:09:30;103111.25;;;3.11;81.84
26775;BME280;14362;51.902;7.626;2024-01-27T10:13:34;103114.91;;;3.15;82.46
26775;BME280;14362;51.902;7.626;2024-01-27T10:17:35;103107.53;;;3.24;82.19
26775;BME280;14362;51.902;7.626;2024-01-27T10:21:38;103114.94;;;3.35;81.58
26775;BME280;14362;51.902;7.626;2024-01-27T10:25:39;103109.06;;;3.39;80.98
26775;BME280;14362;51.902;7.626;2024-01-27T10:29:52;103108.53;;;3.46;81.55
26775;BME280;14362;51.902;7.626;2024-01-27T10:33:55;103089.09;;;3.57;81.30
26775;BME280;14362;51.902;7.626;2024-01-27T10:37:56;103100.78;;;3.67;80.83
26775;BME280;14362;51.902;7.626;2024-01-27T10:42:02;103085.44;;;3.73;80.49
26775;BME280;14362;51.902;7.626;2024-01-27T10:46:06;103084.06;;;3.82;79.82
26775;BME280;14362;51.902;7.626;2024-01-27T10:50:09;103068.72;;;3.88;80.23
26775;BME280;14362;51.902;7.626;2024-01-27T10:54:14;103075.94;;;3.93;79.25
26775;BME280;14362;51.902;7.626;2024-01-27T10:58:15;103081.44;;;4.01;79.25
26775;BME280;14362;51.902;7.626;2024-01-27T11:02:18;103085.28;;;4.09;79.75
26775;BME280;14362;51.902;7.626;2024-01-27T11:06:21;103085.94;;;4.25;78.70
26775;BME280;14362;51.902;7.626;2024-01-27T11:10:23;103089.28;;;4.42;78.83
26775;BME280;14362;51.902;7.626;2024-01-27T11:14:25;103080.13;;;4.52;78.03
26775;BME280;14362;51.902;7.626;2024-01-27T11:18:29;103086.66;;;4.63;77.34
26775;BME280;14362;51.902;7.626;2024-01-27T11:22:31;103091.31;;;4.70;76.77
26775;BME280;14362;51.902;7.626;2024-01-27T11:26:32;103088.03;;;4.76;76.85
26775;BME280;14362;51.902;7.626;2024-01-27T11:30:35;103091.09;;;4.87;76.70
26775;BME280;14362;51.902;7.626;2024-01-27T11:34:42;103089.47;;;4.90;76.85
26775;BME280;14362;51.902;7.626;2024-01-27T11:38:44;103069.56;;;4.92;76.50
26775;BME280;14362;51.902;7.626;2024-01-27T11:42:54;103069.97;;;5.03;75.69
26775;BME280;14362;51.902;7.626;2024-01-27T11:46:55;103084.97;;;5.07;75.99
26775;BME280;14362;51.902;7.626;2024-01-27T11:51:04;103099.38;;;5.20;75.23
26775;BME280;14362;51.902;7.626;2024-01-27T11:55:07;103093.75;;;5.32;75.33
26775;BME280;14362;51.902;7.626;2024-01-27T11:59:09;103087.13;;;5.42;75.10
26775;BME280;14362;51.902;7.626;2024-01-27T12:03:11;103084.03;;;5.52;73.81
26775;BME280;14362;51.902;7.626;2024-01-27T12:07:14;103078.16;;;5.58;73.51
26775;BME280;14362;51.902;7.626;2024-01-27T12:11:15;103070.53;;;5.64;73.46
26775;BME280;14362;51.902;7.626;2024-01-27T12:15:17;103080.47;;;5.74;73.46
26775;BME280;14362;51.902;7.626;2024-01-27T12:19:20;103079.44;;;5.93;72.66
26775;BME280;14362;51.902;7.626;2024-01-27T12:23:23;103080.53;;;5.99;72.40
26775;BME280;14362;51.902;7.626;2024-01-27T12:27:24;103081.41;;;5.99;72.21
26775;BME280;14362;51.902;7.626;2024-01-27T12:31:26;103078.00;;;6.02;70.84
26775;BME280;14362;51.902;7.626;2024-01-27T12:35:28;103093.81;;;6.05;71.01
26775;BME280;14362;51.902;7.626;2024-01-27T12:39:32;103094.41;;;6.22;69.10
26775;BME280;14362;51.902;7.626;2024-01-27T12:43:33;103086.91;;;6.33;69.33
26775;BME280;14362;51.902;7.626;2024-01-27T12:47:35;103090.66;;;6.39;68.95
26775;BME280;14362;51.902;7.626;2024-01-27T12:51:36;103090.84;;;6.46;67.78
26775;BME280;14362;51.902;7.626;2024-01-27T12:55:39;103088.38;;;6.50;67.57
26775;BME280;14362;51.902;7.626;2024-01-27T12:59:41;103084.09;;;6.52;67.46
26775;BME280;14362;51.902;7.626;2024-01-27T13:03:42;103090.38;;;6.57;66.46
26775;BME280;14362;51.902;7.626;2024-01-27T13:07:44;103089.16;;;6.73;65.36
26775;BME280;14362;51.902;7.626;2024-01-27T13:11:46;103084.28;;;6.86;65.47
26775;BME280;14362;51.902;7.626;2024-01-27T13:15:48;103091.50;;;6.93;63.91
26775;BME280;14362;51.902;7.626;2024-01-27T13:19:49;103088.69;;;6.87;63.98
26775;BME280;14362;51.902;7.626;2024-01-27T13:23:51;103073.22;;;6.95;62.57
26775;BME280;14362;51.902;7.626;2024-01-27T13:27:54;103055.81;;;6.95;63.74
26775;BME280;14362;51.902;7.626;2024-01-27T13:31:56;103052.66;;;7.07;64.08
26775;BME280;14362;51.902;7.626;2024-01-27T13:35:58;103052.09;;;7.17;64.16
26775;BME280;14362;51.902;7.626;2024-01-27T13:40:00;103043.41;;;7.18;63.58
26775;BME280;14362;51.902;7.626;2024-01-27T13:44:03;103050.47;;;7.21;64.54
26775;BME280;14362;51.902;7.626;2024-01-27T13:48:07;103047.09;;;7.25;63.30
26775;BME280;14362;51.902;7.626;2024-01-27T13:52:08;103058.53;;;7.29;62.88
26775;BME280;14362;51.902;7.626;2024-01-27T13:56:10;103055.06;;;7.30;62.95
26775;BME280;14362;51.902;7.626;2024-01-27T14:00:14;103054.22;;;7.31;62.38
26775;BME280;14362;51.902;7.626;2024-01-27T14:04:16;103055.97;;;7.30;62.31
26775;BME280;14362;51.902;7.626;2024-01-27T14:08:17;103052.59;;;7.34;63.55
26775;BME280;14362;51.902;7.626;2024-01-27T14:12:19;103051.88;;;7.40;62.59
26775;BME280;14362;51.902;7.626;2024-01-27T14:16:22;103057.97;;;7.39;63.45
26775;BME280;14362;51.902;7.626;2024-01-27T14:20:23;103059.56;;;7.34;62.90
26775;BME280;14362;51.902;7.626;2024-01-27T14:24:25;103052.72;;;7.39;62.24
26775;BME280;14362;51.902;7.626;2024-01-27T14:28:27;103048.00;;;7.27;63.17
26775;BME280;14362;51.902;7.626;2024-01-27T14:32:30;103049.25;;;7.09;62.67
26775;BME280;14362;51.902;7.626;2024-01-27T14:36:31;103054.38;;;7.06;63.92
26775;BME280;14362;51.902;7.626;2024-01-27T14:40:32;103050.66;;;6.98;63.44
26775;BME280;14362;51.902;7.626;2024-01-27T14:44:34;103041.56;;;6.87;64.21
26775;BME280;14362;51.902;7.626;2024-01-27T14:48:37;103032.38;;;6.72;64.96
26775;BME280;14362;51.902;7.626;2024-01-27T14:52:38;103038.88;;;6.56;65.46
26775;BME280;14362;51.902;7.626;2024-01-27T14:56:40;103043.59;;;6.41;65.36
26775;BME280;14362;51.902;7.626;2024-01-27T15:00:41;103051.97;;;6.31;65.51
26775;BME280;14362;51.902;7.626;2024-01-27T15:04:44;103048.06;;;6.18;65.49
26775;BME280;14362;51.902;7.626;2024-01-27T15:08:46;103049.41;;;6.06;65.59
26775;BME280;14362;51.902;7.626;2024-01-27T15:12:47;103049.00;;;5.96;65.79
26775;BME280;14362;51.902;7.626;2024-01-27T15:16:49;103053.84;;;5.85;65.68
26775;BME280;14362;51.902;7.626;2024-01-27T15:20:51;103050.94;;;5.77;65.92
26775;BME280;14362;51.902;7.626;2024-01-27T15:24:53;103046.34;;;5.70;66.75
26775;BME280;14362;51.902;7.626;2024-01-27T15:28:54;103038.25;;;5.62;66.50
26775;BME280;14362;51.902;7.626;2024-01-27T15:32:56;103032.69;;;5.53;66.65
26775;BME280;14362;51.902;7.626;2024-01-27T15:36:58;103037.69;;;5.47;66.97
26775;BME280;14362;51.902;7.626;2024-01-27T15:41:00;103036.38;;;5.35;67.80
26775;BME280;14362;51.902;7.626;2024-01-27T15:45:06;103042.91;;;5.24;67.96
26775;BME280;14362;51.902;7.626;2024-01-27T15:49:08;103044.31;;;5.14;68.83
26775;BME280;14362;51.902;7.626;2024-01-27T15:53:11;103049.88;;;5.01;69.87
26775;BME280;14362;51.902;7.626;2024-01-27T15:57:12;103042.44;;;4.89;70.21
26775;BME280;14362;51.902;7.626;2024-01-27T16:01:13;103044.50;;;4.75;71.02
26775;BME280;14362;51.902;7.626;2024-01-27T16:05:16;103036.97;;;4.60;70.88
26775;BME280;14362;51.902;7.626;2024-01-27T16:09:19;103038.06;;;4.44;71.56
26775;BME280;14362;51.902;7.626;2024-01-27T16:13:21;103034.94;;;4.32;72.60
26775;BME280;14362;51.902;7.626;2024-01-27T16:17:22;103036.97;;;4.18;72.75
26775;BME280;14362;51.902;7.626;2024-01-27T16:21:24;103041.53;;;4.02;73.90
26775;BME280;14362;51.902;7.626;2024-01-27T16:25:27;103041.78;;;3.87;74.28
26775;BME280;14362;51.902;7.626;2024-01-27T16:29:28;103036.06;;;3.76;73.68
26775;BME280;14362;51.902;7.626;2024-01-27T16:33:30;103041.56;;;3.63;74.51
26775;BME280;14362;51.902;7.626;2024-01-27T16:37:32;103040.13;;;3.50;75.36
26775;BME280;14362;51.902;7.626;2024-01-27T16:41:35;103046.63;;;3.40;75.65
26775;BME280;14362;51.902;7.626;2024-01-27T16:45:36;103059.22;;;3.31;76.57
26775;BME280;14362;51.902;7.626;2024-01-27T16:49:37;103055.31;;;3.21;76.72
26775;BME280;14362;51.902;7.626;2024-01-27T16:53:39;103078.38;;;3.13;76.68
26775;BME280;14362;51.902;7.626;2024-01-27T16:57:42;103077.13;;;3.05;77.74
26775;BME280;14362;51.902;7.626;2024-01-27T17:01:43;103068.75;;;2.93;78.07
26775;BME280;14362;51.902;7.626;2024-01-27T17:05:45;103069.13;;;2.83;77.99
26775;BME280;14362;51.902;7.626;2024-01-27T17:09:47;103067.19;;;2.78;78.24
26775;BME280;14362;51.902;7.626;2024-01-27T17:13:49;103076.84;;;2.63;78.38
26775;BME280;14362;51.902;7.626;2024-01-27T17:17:51;103077.34;;;2.56;78.35
26775;BME280;14362;51.902;7.626;2024-01-27T17:21:52;103072.50;;;2.45;78.68
26775;BME280;14362;51.902;7.626;2024-01-27T17:25:54;103072.13;;;2.38;78.81
26775;BME280;14362;51.902;7.626;2024-01-27T17:29:57;103068.81;;;2.24;79.69
26775;BME280;14362;51.902;7.626;2024-01-27T17:33:58;103058.78;;;2.13;79.37
26775;BME280;14362;51.902;7.626;2024-01-27T17:38:00;103050.69;;;2.07;80.27
26775;BME280;14362;51.902;7.626;2024-01-27T17:42:01;103042.31;;;1.96;80.42
26775;BME280;14362;51.902;7.626;2024-01-27T17:46:05;103043.78;;;1.91;80.68
26775;BME280;14362;51.902;7.626;2024-01-27T17:50:07;103055.44;;;1.81;80.38
26775;BME280;14362;51.902;7.626;2024-01-27T17:54:10;103056.22;;;1.80;80.36
26775;BME280;14362;51.902;7.626;2024-01-27T17:58:11;103066.22;;;1.73;80.88
26775;BME280;14362;51.902;7.626;2024-01-27T18:02:14;103071.09;;;1.67;80.69
26775;BME280;14362;51.902;7.626;2024-01-27T18:06:16;103068.16;;;1.60;81.16
26775;BME280;14362;51.902;7.626;2024-01-27T18:10:17;103067.94;;;1.56;81.04
26775;BME280;14362;51.902;7.626;2024-01-27T18:14:19;103063.84;;;1.44;81.51
26775;BME280;14362;51.902;7.626;2024-01-27T18:18:22;103069.63;;;1.39;81.74
26775;BME280;14362;51.902;7.626;2024-01-27T18:22:23;103060.44;;;1.29;82.35
26775;BME280;14362;51.902;7.626;2024-01-27T18:26:25;103068.78;;;1.23;82.62
26775;BME280;14362;51.902;7.626;2024-01-27T18:30:26;103066.66;;;1.16;82.79
26775;BME280;14362;51.902;7.626;2024-01-27T18:34:29;103060.22;;;1.09;82.61
26775;BME280;14362;51.902;7.626;2024-01-27T18:38:31;103056.66;;;1.07;82.58
26775;BME280;14362;51.902;7.626;2024-01-27T18:42:32;103050.16;;;0.99;83.11
26775;BME280;14362;51.902;7.626;2024-01-27T18:46:34;103055.19;;;0.96;83.65
26775;BME280;14362;51.902;7.626;2024-01-27T18:50:37;103052.31;;;0.91;83.03
26775;BME280;14362;51.902;7.626;2024-01-27T18:54:39;103049.81;;;0.93;83.08
26775;BME280;14362;51.902;7.626;2024-01-27T18:58:41;103052.06;;;0.87;83.16
26775;BME280;14362;51.902;7.626;2024-01-27T19:02:42;103039.56;;;0.79;82.91
26775;BME280;14362;51.902;7.626;2024-01-27T19:06:45;103054.63;;;0.70;83.75
26775;BME280;14362;51.902;7.626;2024-01-27T19:10:46;103052.97;;;0.72;83.67
26775;BME280;14362;51.902;7.626;2024-01-27T19:14:48;103054.97;;;0.61;83.94
26775;BME280;14362;51.902;7.626;2024-01-27T19:18:49;103060.16;;;0.61;84.03
26775;BME280;14362;51.902;7.626;2024-01-27T19:22:52;103058.41;;;0.45;83.93
26775;BME280;14362;51.902;7.626;2024-01-27T19:26:53;103059.91;;;0.42;83.70
26775;BME280;14362;51.902;7.626;2024-01-27T19:30:55;103063.38;;;0.42;84.09
26775;BME280;14362;51.902;7.626;2024-01-27T19:34:56;103065.72;;;0.38;84.18
26775;BME280;14362;51.902;7.626;2024-01-27T19:38:59;103072.94;;;0.28;84.63
26775;BME280;14362;51.902;7.626;2024-01-27T19:43:01;103076.16;;;0.24;84.67
26775;BME280;14362;51.902;7.626;2024-01-27T19:47:03;103077.66;;;0.21;84.33
26775;BME280;14362;51.902;7.626;2024-01-27T19:51:07;103061.78;;;0.14;84.67
26775;BME280;14362;51.902;7.626;2024-01-27T19:55:10;103068.94;;;0.19;85.00
26775;BME280;14362;51.902;7.626;2024-01-27T19:59:12;103072.94;;;0.13;85.30
26775;BME280;14362;51.902;7.626;2024-01-27T20:03:13;103061.66;;;0.13;85.33
26775;BME280;14362;51.902;7.626;2024-01-27T20:07:15;103064.72;;;0.06;85.36
26775;BME280;14362;51.902;7.626;2024-01-27T20:11:18;103067.03;;;0.01;85.77
26775;BME280;14362;51.902;7.626;2024-01-27T20:15:19;103067.84;;;0.00;86.29
26775;BME280;14362;51.902;7.626;2024-01-27T20:19:21;103062.38;;;-0.05;85.70
26775;BME280;14362;51.902;7.626;2024-01-27T20:23:22;103066.69;;;-0.05;85.79
26775;BME280;14362;51.902;7.626;2024-01-27T20:27:25;103066.69;;;-0.05;85.61
26775;BME280;14362;51.902;7.626;2024-01-27T20:31:26;103066.81;;;-0.17;85.87
26775;BME280;14362;51.902;7.626;2024-01-27T20:35:28;103078.59;;;-0.22;85.43
26775;BME280;14362;51.902;7.626;2024-01-27T20:39:30;103071.34;;;-0.28;85.51
26775;BME280;14362;51.902;7.626;2024-01-27T20:43:33;103082.59;;;-0.27;85.91
26775;BME280;14362;51.902;7.626;2024-01-27T20:47:34;103081.63;;;-0.29;85.66
26775;BME280;14362;51.902;7.626;2024-01-27T20:51:36;103074.81;;;-0.27;85.43
26775;BME280;14362;51.902;7.626;2024-01-27T20:55:39;103078.13;;;-0.30;85.39
26775;BME280;14362;51.902;7.626;2024-01-27T20:59:42;103075.75;;;-0.40;85.73
26775;BME280;14362;51.902;7.626;2024-01-27T21:03:44;103073.00;;;-0.43;85.99
26775;BME280;14362;51.902;7.626;2024-01-27T21:07:45;103064.13;;;-0.47;86.06
26775;BME280;14362;51.902;7.626;2024-01-27T21:11:47;103060.66;;;-0.47;86.25
26775;BME280;14362;51.902;7.626;2024-01-27T21:15:50;103056.13;;;-0.52;86.74
26775;BME280;14362;51.902;7.626;2024-01-27T21:19:51;103053.53;;;-0.52;86.61